createdAt,value
2019-06-01T00:00:46.319Z,0.00
2019-06-01T00:01:46.848Z,0.00
2019-06-01T00:02:52.624Z,0.00
2019-06-01T00:03:46.632Z,0.00
2019-06-01T00:04:47.107Z,0.00
2019-06-01T00:05:46.908Z,0.00
2019-06-01T00:06:46.831Z,0.00
2019-06-01T00:07:46.974Z,0.00
2019-06-01T00:08:45.580Z,0.00
2019-06-01T00:09:45.568Z,0.00
2019-06-01T00:10:45.555Z,0.00
2019-06-01T00:11:45.663Z,0.00
2019-06-01T00:12:45.531Z,0.00
2019-06-01T00:13:45.633Z,0.00
2019-06-01T00:14:46.104Z,0.00
2019-06-01T00:15:46.124Z,0.00
2019-06-01T00:16:46.005Z,0.00
2019-06-01T00:17:46.013Z,0.00
2019-06-01T00:18:46.034Z,0.00
2019-06-01T00:19:46.259Z,0.00
2019-06-01T00:20:45.443Z,0.00
2019-06-01T00:21:45.558Z,0.00
2019-06-01T00:22:45.538Z,0.00
2019-06-01T00:23:46.583Z,0.00
2019-06-01T00:24:45.900Z,0.00
2019-06-01T00:25:46.637Z,0.00
2019-06-01T00:26:45.850Z,0.00
2019-06-01T00:27:46.636Z,0.00
2019-06-01T00:28:45.784Z,0.00
2019-06-01T00:29:45.338Z,0.00
2019-06-01T00:30:45.816Z,0.00
2019-06-01T00:31:45.431Z,0.00
2019-06-01T00:32:45.328Z,0.00
2019-06-01T00:33:45.507Z,0.00
2019-06-01T00:34:45.742Z,0.00
2019-06-01T00:35:45.511Z,0.00
2019-06-01T00:36:45.633Z,0.00
2019-06-01T00:37:45.645Z,0.00
2019-06-01T00:38:45.658Z,0.00
2019-06-01T00:39:45.799Z,0.00
2019-06-01T00:40:45.846Z,0.00
2019-06-01T00:41:45.970Z,0.00
2019-06-01T00:42:46.074Z,0.00
2019-06-01T00:43:46.145Z,0.00
2019-06-01T00:44:46.242Z,0.00
2019-06-01T00:45:46.243Z,0.00
2019-06-01T00:46:45.148Z,0.00
2019-06-01T00:47:45.161Z,0.00
2019-06-01T00:48:45.877Z,0.00
2019-06-01T00:49:45.113Z,0.00
2019-06-01T00:50:45.103Z,0.00
2019-06-01T00:51:45.097Z,0.00
2019-06-01T00:52:45.175Z,0.00
2019-06-01T00:53:45.428Z,0.00
2019-06-01T00:54:45.333Z,0.00
2019-06-01T00:55:45.977Z,0.00
2019-06-01T00:56:45.569Z,0.00
2019-06-01T00:57:45.715Z,0.00
2019-06-01T00:58:45.678Z,0.00
2019-06-01T00:59:45.885Z,0.00
2019-06-01T01:00:46.083Z,0.00
2019-06-01T01:01:45.893Z,0.00
2019-06-01T01:02:45.926Z,0.00
2019-06-01T01:03:46.080Z,0.00
2019-06-01T01:04:46.287Z,0.00
2019-06-01T01:05:44.936Z,0.00
2019-06-01T01:06:44.920Z,0.00
2019-06-01T01:07:44.921Z,0.00
2019-06-01T01:08:44.968Z,0.00
2019-06-01T01:09:44.896Z,0.00
2019-06-01T01:10:44.892Z,0.00
2019-06-01T01:11:44.943Z,0.00
2019-06-01T01:12:45.012Z,0.00
2019-06-01T01:13:45.654Z,0.00
2019-06-01T01:14:45.178Z,0.00
2019-06-01T01:15:45.244Z,0.00
2019-06-01T01:16:45.503Z,0.00
2019-06-01T01:17:45.744Z,0.00
2019-06-01T01:18:45.631Z,0.00
2019-06-01T01:19:45.618Z,0.00
2019-06-01T01:20:45.926Z,0.00
2019-06-01T01:21:45.962Z,0.00
2019-06-01T01:22:46.038Z,0.00
2019-06-01T01:23:46.073Z,0.00
2019-06-01T01:24:44.715Z,0.00
2019-06-01T01:25:44.710Z,0.00
2019-06-01T01:26:44.692Z,0.00
2019-06-01T01:27:44.682Z,0.00
2019-06-01T01:28:44.695Z,0.00
2019-06-01T01:29:44.662Z,0.00
2019-06-01T01:31:01.644Z,0.00
2019-06-01T01:31:45.638Z,0.00
2019-06-01T01:32:44.625Z,0.00
2019-06-01T01:33:44.646Z,0.00
2019-06-01T01:34:44.602Z,0.00
2019-06-01T01:35:44.591Z,0.00
2019-06-01T01:36:44.579Z,0.00
2019-06-01T01:37:44.569Z,0.00
2019-06-01T01:38:44.584Z,0.00
2019-06-01T01:39:44.555Z,0.00
2019-06-01T01:40:44.547Z,0.00
2019-06-01T01:41:44.525Z,0.00
2019-06-01T01:42:44.511Z,0.00
2019-06-01T01:43:44.501Z,0.00
2019-06-01T01:44:44.520Z,0.00
2019-06-01T01:45:44.485Z,0.00
2019-06-01T01:46:44.467Z,0.00
2019-06-01T01:47:44.456Z,0.00
2019-06-01T01:48:44.446Z,0.00
2019-06-01T01:49:44.458Z,0.00
2019-06-01T01:50:44.423Z,0.00
2019-06-01T01:51:44.416Z,0.00
2019-06-01T01:52:44.399Z,0.00
2019-06-01T01:53:44.390Z,0.00
2019-06-01T01:54:44.405Z,0.00
2019-06-01T01:55:44.364Z,0.00
2019-06-01T01:56:44.353Z,0.00
2019-06-01T01:57:44.341Z,0.00
2019-06-01T01:58:44.331Z,0.00
2019-06-01T01:59:44.345Z,0.00
2019-06-01T02:00:44.313Z,0.00
2019-06-01T02:01:44.296Z,0.00
2019-06-01T02:02:44.288Z,0.00
2019-06-01T02:03:44.277Z,0.00
2019-06-01T02:04:44.287Z,0.00
2019-06-01T02:05:44.251Z,0.00
2019-06-01T02:06:44.242Z,0.00
2019-06-01T02:07:44.227Z,0.00
2019-06-01T02:08:44.218Z,0.00
2019-06-01T02:09:44.231Z,0.00
2019-06-01T02:10:44.196Z,0.00
2019-06-01T02:11:44.191Z,0.00
2019-06-01T02:12:44.172Z,0.00
2019-06-01T02:13:44.166Z,0.00
2019-06-01T02:14:44.173Z,0.00
2019-06-01T02:15:44.138Z,0.00
2019-06-01T02:16:44.129Z,0.00
2019-06-01T02:17:44.119Z,0.00
2019-06-01T02:18:44.104Z,0.00
2019-06-01T02:19:44.134Z,0.00
2019-06-01T02:20:44.096Z,0.00
2019-06-01T02:21:44.084Z,0.00
2019-06-01T02:22:44.072Z,0.00
2019-06-01T02:23:44.058Z,0.00
2019-06-01T02:24:44.049Z,0.00
2019-06-01T02:25:44.066Z,0.00
2019-06-01T02:26:44.026Z,0.00
2019-06-01T02:27:44.013Z,0.00
2019-06-01T02:28:43.999Z,0.00
2019-06-01T02:29:43.991Z,0.00
2019-06-01T02:30:44.013Z,0.00
2019-06-01T02:31:43.967Z,0.00
2019-06-01T02:32:43.958Z,0.00
2019-06-01T02:33:43.943Z,0.00
2019-06-01T02:34:43.933Z,0.00
2019-06-01T02:35:43.964Z,0.00
2019-06-01T02:36:43.916Z,0.00
2019-06-01T02:37:43.918Z,0.00
2019-06-01T02:38:43.887Z,0.00
2019-06-01T02:39:43.876Z,0.00
2019-06-01T02:40:43.896Z,0.00
2019-06-01T02:41:43.856Z,0.00
2019-06-01T02:42:43.844Z,0.00
2019-06-01T02:43:43.832Z,0.00
2019-06-01T02:44:43.834Z,0.00
2019-06-01T02:45:43.839Z,0.00
2019-06-01T02:46:43.798Z,0.00
2019-06-01T02:47:43.784Z,0.00
2019-06-01T02:48:43.773Z,0.00
2019-06-01T02:49:43.769Z,0.00
2019-06-01T02:50:43.783Z,0.00
2019-06-01T02:51:43.740Z,0.00
2019-06-01T02:52:43.734Z,0.00
2019-06-01T02:53:43.720Z,0.00
2019-06-01T02:54:43.708Z,0.00
2019-06-01T02:55:43.724Z,0.00
2019-06-01T02:56:43.683Z,0.00
2019-06-01T02:57:43.671Z,0.00
2019-06-01T02:58:43.661Z,0.00
2019-06-01T02:59:43.650Z,0.00
2019-06-01T03:00:43.671Z,0.00
2019-06-01T03:01:56.387Z,0.00
2019-06-01T03:02:44.613Z,0.00
2019-06-01T03:03:43.675Z,0.00
2019-06-01T03:04:43.593Z,0.00
2019-06-01T03:05:43.584Z,0.00
2019-06-01T03:06:43.602Z,0.00
2019-06-01T03:07:43.558Z,0.00
2019-06-01T03:08:43.550Z,0.00
2019-06-01T03:09:43.536Z,0.00
2019-06-01T03:10:43.526Z,0.00
2019-06-01T03:11:43.552Z,0.00
2019-06-01T03:12:43.501Z,0.00
2019-06-01T03:13:43.492Z,0.00
2019-06-01T03:14:43.479Z,0.00
2019-06-01T03:15:43.468Z,0.00
2019-06-01T03:16:43.496Z,0.00
2019-06-01T03:17:43.487Z,0.00
2019-06-01T03:18:43.432Z,0.00
2019-06-01T03:19:43.425Z,0.00
2019-06-01T03:20:43.411Z,0.00
2019-06-01T03:21:43.431Z,0.00
2019-06-01T03:22:43.388Z,0.00
2019-06-01T03:23:43.377Z,0.00
2019-06-01T03:24:43.365Z,0.00
2019-06-01T03:25:43.358Z,0.00
2019-06-01T03:26:43.373Z,0.00
2019-06-01T03:27:43.332Z,0.00
2019-06-01T03:28:43.321Z,0.00
2019-06-01T03:29:43.308Z,0.00
2019-06-01T03:30:45.645Z,0.00
2019-06-01T03:31:43.319Z,0.00
2019-06-01T03:32:43.276Z,0.00
2019-06-01T03:33:43.265Z,0.00
2019-06-01T03:34:43.251Z,0.00
2019-06-01T03:35:43.246Z,0.00
2019-06-01T03:36:43.265Z,0.00
2019-06-01T03:37:43.225Z,0.00
2019-06-01T03:38:43.207Z,0.00
2019-06-01T03:39:43.194Z,0.00
2019-06-01T03:40:43.185Z,0.00
2019-06-01T03:41:43.209Z,0.00
2019-06-01T03:42:43.173Z,0.00
2019-06-01T03:43:43.149Z,0.00
2019-06-01T03:44:43.141Z,0.00
2019-06-01T03:45:43.134Z,0.00
2019-06-01T03:46:43.150Z,0.00
2019-06-01T03:47:43.106Z,0.00
2019-06-01T03:48:43.124Z,0.00
2019-06-01T03:49:43.089Z,0.00
2019-06-01T03:50:43.075Z,0.00
2019-06-01T03:51:43.090Z,0.00
2019-06-01T03:52:43.052Z,0.00
2019-06-01T03:53:43.039Z,0.00
2019-06-01T03:54:43.027Z,5.62
2019-06-01T03:55:43.015Z,5.62
2019-06-01T03:56:43.034Z,5.62
2019-06-01T03:57:43.012Z,5.62
2019-06-01T03:58:42.980Z,5.62
2019-06-01T03:59:42.969Z,5.62
2019-06-01T04:00:42.958Z,5.62
2019-06-01T04:01:42.948Z,5.62
2019-06-01T04:02:42.966Z,5.62
2019-06-01T04:03:42.924Z,5.62
2019-06-01T04:04:42.936Z,5.62
2019-06-01T04:05:42.901Z,5.62
2019-06-01T04:06:42.894Z,5.62
2019-06-01T04:07:42.909Z,5.62
2019-06-01T04:08:42.866Z,5.62
2019-06-01T04:09:42.855Z,5.62
2019-06-01T04:10:42.885Z,5.62
2019-06-01T04:11:42.833Z,5.62
2019-06-01T04:12:42.853Z,5.62
2019-06-01T04:13:42.812Z,5.62
2019-06-01T04:14:42.799Z,5.62
2019-06-01T04:15:42.794Z,5.62
2019-06-01T04:16:42.778Z,11.25
2019-06-01T04:17:42.798Z,11.25
2019-06-01T04:18:42.754Z,11.25
2019-06-01T04:19:42.745Z,11.25
2019-06-01T04:20:42.732Z,11.25
2019-06-01T04:21:42.719Z,11.25
2019-06-01T04:22:42.744Z,11.25
2019-06-01T04:23:42.697Z,11.25
2019-06-01T04:24:42.685Z,11.25
2019-06-01T04:25:42.675Z,11.25
2019-06-01T04:26:42.665Z,11.25
2019-06-01T04:27:42.652Z,11.25
2019-06-01T04:28:42.672Z,11.25
2019-06-01T04:29:42.634Z,11.25
2019-06-01T04:30:42.618Z,11.25
2019-06-01T04:31:42.615Z,11.25
2019-06-01T04:32:49.896Z,11.25
2019-06-01T04:33:43.612Z,11.25
2019-06-01T04:34:42.576Z,11.25
2019-06-01T04:35:42.565Z,11.25
2019-06-01T04:36:42.550Z,16.88
2019-06-01T04:37:42.544Z,11.25
2019-06-01T04:38:42.558Z,11.25
2019-06-01T04:39:42.515Z,16.88
2019-06-01T04:40:42.505Z,11.25
2019-06-01T04:41:42.493Z,11.25
2019-06-01T04:42:42.482Z,11.25
2019-06-01T04:43:42.502Z,11.25
2019-06-01T04:44:42.480Z,11.25
2019-06-01T04:45:42.449Z,11.25
2019-06-01T04:46:42.438Z,16.88
2019-06-01T04:47:42.424Z,16.88
2019-06-01T04:48:42.446Z,11.25
2019-06-01T04:49:42.405Z,11.25
2019-06-01T04:50:42.399Z,11.25
2019-06-01T04:51:42.381Z,11.25
2019-06-01T04:52:42.369Z,11.25
2019-06-01T04:53:42.397Z,11.25
2019-06-01T04:54:42.378Z,11.25
2019-06-01T04:55:42.336Z,11.25
2019-06-01T04:56:42.322Z,11.25
2019-06-01T04:57:42.313Z,11.25
2019-06-01T04:58:42.333Z,11.25
2019-06-01T04:59:42.290Z,11.25
2019-06-01T05:00:42.278Z,11.25
2019-06-01T05:01:42.266Z,11.25
2019-06-01T05:02:42.255Z,11.25
2019-06-01T05:03:42.273Z,11.25
2019-06-01T05:04:43.664Z,16.88
2019-06-01T05:05:42.226Z,16.88
2019-06-01T05:06:42.210Z,16.88
2019-06-01T05:07:42.198Z,16.88
2019-06-01T05:08:42.216Z,16.88
2019-06-01T05:09:42.177Z,16.88
2019-06-01T05:10:42.164Z,16.88
2019-06-01T05:11:42.152Z,16.88
2019-06-01T05:12:42.141Z,16.88
2019-06-01T05:13:42.132Z,16.88
2019-06-01T05:14:42.151Z,16.88
2019-06-01T05:15:42.108Z,16.88
2019-06-01T05:16:42.096Z,16.88
2019-06-01T05:17:42.086Z,16.88
2019-06-01T05:18:42.078Z,16.88
2019-06-01T05:19:42.096Z,16.88
2019-06-01T05:20:42.052Z,16.88
2019-06-01T05:21:42.040Z,16.88
2019-06-01T05:22:42.028Z,22.50
2019-06-01T05:23:42.019Z,22.50
2019-06-01T05:24:42.037Z,22.50
2019-06-01T05:25:41.996Z,22.50
2019-06-01T05:26:41.984Z,22.50
2019-06-01T05:27:41.972Z,22.50
2019-06-01T05:28:41.961Z,22.50
2019-06-01T05:29:41.980Z,22.50
2019-06-01T05:30:41.938Z,22.50
2019-06-01T05:31:41.925Z,22.50
2019-06-01T05:32:41.918Z,22.50
2019-06-01T05:33:41.903Z,22.50
2019-06-01T05:34:41.931Z,22.50
2019-06-01T05:35:41.880Z,22.50
2019-06-01T05:36:41.871Z,22.50
2019-06-01T05:37:41.858Z,22.50
2019-06-01T05:38:41.848Z,22.50
2019-06-01T05:39:41.865Z,22.50
2019-06-01T05:40:41.829Z,16.88
2019-06-01T05:41:41.812Z,22.50
2019-06-01T05:42:41.810Z,16.88
2019-06-01T05:43:41.790Z,16.88
2019-06-01T05:44:41.780Z,16.88
2019-06-01T05:45:41.801Z,16.88
2019-06-01T05:46:41.758Z,16.88
2019-06-01T05:47:41.745Z,16.88
2019-06-01T05:48:41.735Z,16.88
2019-06-01T05:49:41.725Z,16.88
2019-06-01T05:50:41.745Z,16.88
2019-06-01T05:51:41.698Z,16.88
2019-06-01T05:52:41.688Z,16.88
2019-06-01T05:53:41.678Z,16.88
2019-06-01T05:54:41.666Z,16.88
2019-06-01T05:55:41.687Z,16.88
2019-06-01T05:56:41.641Z,16.88
2019-06-01T05:57:41.631Z,16.88
2019-06-01T05:58:41.619Z,16.88
2019-06-01T05:59:41.607Z,22.50
2019-06-01T06:00:41.630Z,22.50
2019-06-01T06:01:41.587Z,22.50
2019-06-01T06:02:41.582Z,22.50
2019-06-01T06:03:41.565Z,22.50
2019-06-01T06:04:41.551Z,22.50
2019-06-01T06:05:41.582Z,22.50
2019-06-01T06:06:41.534Z,22.50
2019-06-01T06:07:41.518Z,22.50
2019-06-01T06:08:41.514Z,28.12
2019-06-01T06:09:41.553Z,28.12
2019-06-01T06:10:41.522Z,28.12
2019-06-01T06:11:41.477Z,22.50
2019-06-01T06:12:41.464Z,22.50
2019-06-01T06:13:41.458Z,22.50
2019-06-01T06:14:41.442Z,28.12
2019-06-01T06:15:41.461Z,28.12
2019-06-01T06:16:41.416Z,28.12
2019-06-01T06:17:41.404Z,28.12
2019-06-01T06:18:41.397Z,28.12
2019-06-01T06:19:41.381Z,28.12
2019-06-01T06:20:41.401Z,28.12
2019-06-01T06:21:41.360Z,28.12
2019-06-01T06:22:41.415Z,28.12
2019-06-01T06:23:41.355Z,28.12
2019-06-01T06:24:41.325Z,28.12
2019-06-01T06:25:41.581Z,28.12
2019-06-01T06:26:41.302Z,28.12
2019-06-01T06:27:41.292Z,28.12
2019-06-01T06:28:41.285Z,28.12
2019-06-01T06:29:41.269Z,28.12
2019-06-01T06:30:41.294Z,28.12
2019-06-01T06:31:41.247Z,28.12
2019-06-01T06:32:41.235Z,28.12
2019-06-01T06:33:55.443Z,28.12
2019-06-01T06:34:42.211Z,28.12
2019-06-01T06:35:41.238Z,28.12
2019-06-01T06:36:41.190Z,28.12
2019-06-01T06:37:42.409Z,33.75
2019-06-01T06:38:41.167Z,33.75
2019-06-01T06:39:41.159Z,33.75
2019-06-01T06:40:41.148Z,33.75
2019-06-01T06:41:41.164Z,28.12
2019-06-01T06:42:41.122Z,33.75
2019-06-01T06:43:41.117Z,33.75
2019-06-01T06:44:41.099Z,33.75
2019-06-01T06:45:41.121Z,33.75
2019-06-01T06:46:41.079Z,33.75
2019-06-01T06:47:41.066Z,33.75
2019-06-01T06:48:41.053Z,33.75
2019-06-01T06:49:41.048Z,28.12
2019-06-01T06:50:41.034Z,33.75
2019-06-01T06:51:41.056Z,33.75
2019-06-01T06:52:41.021Z,33.75
2019-06-01T06:53:41.004Z,28.12
2019-06-01T06:54:40.993Z,28.12
2019-06-01T06:55:40.988Z,33.75
2019-06-01T06:56:41.000Z,33.75
2019-06-01T06:57:40.954Z,28.12
2019-06-01T06:58:40.943Z,28.12
2019-06-01T06:59:40.933Z,28.12
2019-06-01T07:00:40.920Z,28.12
2019-06-01T07:01:40.953Z,28.12
2019-06-01T07:02:40.910Z,28.12
2019-06-01T07:03:40.900Z,28.12
2019-06-01T07:04:40.886Z,28.12
2019-06-01T07:05:40.872Z,28.12
2019-06-01T07:06:40.882Z,28.12
2019-06-01T07:07:40.842Z,33.75
2019-06-01T07:08:40.827Z,33.75
2019-06-01T07:09:40.826Z,33.75
2019-06-01T07:10:40.810Z,33.75
2019-06-01T07:11:40.851Z,33.75
2019-06-01T07:12:40.787Z,33.75
2019-06-01T07:13:40.784Z,33.75
2019-06-01T07:14:40.765Z,33.75
2019-06-01T07:15:40.766Z,33.75
2019-06-01T07:16:40.773Z,33.75
2019-06-01T07:17:40.726Z,33.75
2019-06-01T07:18:40.722Z,33.75
2019-06-01T07:19:40.704Z,33.75
2019-06-01T07:20:40.726Z,33.75
2019-06-01T07:21:40.729Z,33.75
2019-06-01T07:22:40.690Z,33.75
2019-06-01T07:23:40.668Z,33.75
2019-06-01T07:24:40.648Z,33.75
2019-06-01T07:25:40.638Z,33.75
2019-06-01T07:26:40.705Z,33.75
2019-06-01T07:27:40.616Z,33.75
2019-06-01T07:28:40.603Z,33.75
2019-06-01T07:29:40.601Z,33.75
2019-06-01T07:30:49.713Z,33.75
2019-06-01T07:31:41.600Z,33.75
2019-06-01T07:32:40.560Z,33.75
2019-06-01T07:33:40.547Z,33.75
2019-06-01T07:34:42.794Z,33.75
2019-06-01T07:35:40.526Z,33.75
2019-06-01T07:36:40.516Z,33.75
2019-06-01T07:37:40.533Z,33.75
2019-06-01T07:38:40.492Z,33.75
2019-06-01T07:39:40.479Z,33.75
2019-06-01T07:40:40.472Z,33.75
2019-06-01T07:41:40.457Z,33.75
2019-06-01T07:42:40.478Z,33.75
2019-06-01T07:43:40.439Z,33.75
2019-06-01T07:44:40.422Z,33.75
2019-06-01T07:45:40.413Z,33.75
2019-06-01T07:46:40.402Z,33.75
2019-06-01T07:47:40.422Z,33.75
2019-06-01T07:48:40.386Z,33.75
2019-06-01T07:49:40.366Z,33.75
2019-06-01T07:50:40.355Z,33.75
2019-06-01T07:51:40.347Z,33.75
2019-06-01T07:52:40.368Z,33.75
2019-06-01T07:53:40.320Z,33.75
2019-06-01T07:54:40.309Z,33.75
2019-06-01T07:55:40.298Z,33.75
2019-06-01T07:56:40.287Z,33.75
2019-06-01T07:57:42.932Z,33.75
2019-06-01T07:58:40.269Z,33.75
2019-06-01T07:59:40.252Z,33.75
2019-06-01T08:00:40.242Z,33.75
2019-06-01T08:01:40.239Z,33.75
2019-06-01T08:02:40.249Z,33.75
2019-06-01T08:03:40.206Z,39.38
2019-06-01T08:04:52.537Z,39.38
2019-06-01T08:05:41.186Z,39.38
2019-06-01T08:06:45.706Z,39.38
2019-06-01T08:07:41.195Z,39.38
2019-06-01T08:08:40.152Z,39.38
2019-06-01T08:09:40.143Z,39.38
2019-06-01T08:10:40.128Z,39.38
2019-06-01T08:11:40.121Z,39.38
2019-06-01T08:12:40.137Z,39.38
2019-06-01T08:13:40.096Z,39.38
2019-06-01T08:14:40.087Z,39.38
2019-06-01T08:15:40.071Z,39.38
2019-06-01T08:16:40.065Z,39.38
2019-06-01T08:17:40.083Z,39.38
2019-06-01T08:18:40.038Z,39.38
2019-06-01T08:19:40.034Z,45.00
2019-06-01T08:20:40.015Z,45.00
2019-06-01T08:21:40.004Z,45.00
2019-06-01T08:22:40.025Z,50.62
2019-06-01T08:23:39.980Z,45.00
2019-06-01T08:24:39.974Z,45.00
2019-06-01T08:25:39.959Z,45.00
2019-06-01T08:26:39.948Z,45.00
2019-06-01T08:27:39.937Z,45.00
2019-06-01T08:28:39.961Z,45.00
2019-06-01T08:29:39.914Z,45.00
2019-06-01T08:30:39.903Z,45.00
2019-06-01T08:31:39.899Z,45.00
2019-06-01T08:32:39.915Z,45.00
2019-06-01T08:33:39.899Z,50.62
2019-06-01T08:34:39.857Z,50.62
2019-06-01T08:35:39.857Z,50.62
2019-06-01T08:36:39.855Z,50.62
2019-06-01T08:37:39.826Z,50.62
2019-06-01T08:38:39.857Z,50.62
2019-06-01T08:39:39.805Z,50.62
2019-06-01T08:40:39.796Z,50.62
2019-06-01T08:41:39.781Z,56.25
2019-06-01T08:42:39.772Z,56.25
2019-06-01T08:43:39.791Z,56.25
2019-06-01T08:44:39.744Z,56.25
2019-06-01T08:45:39.735Z,56.25
2019-06-01T08:46:39.722Z,56.25
2019-06-01T08:47:39.712Z,56.25
2019-06-01T08:48:39.736Z,56.25
2019-06-01T08:49:39.702Z,56.25
2019-06-01T08:50:39.677Z,56.25
2019-06-01T08:51:39.666Z,56.25
2019-06-01T08:52:39.654Z,50.62
2019-06-01T08:53:39.674Z,56.25
2019-06-01T08:54:39.632Z,56.25
2019-06-01T08:55:39.632Z,56.25
2019-06-01T08:56:39.608Z,56.25
2019-06-01T08:57:39.599Z,56.25
2019-06-01T08:58:39.619Z,56.25
2019-06-01T08:59:39.576Z,61.88
2019-06-01T09:00:39.570Z,61.88
2019-06-01T09:01:39.559Z,61.88
2019-06-01T09:02:39.542Z,61.88
2019-06-01T09:03:46.266Z,61.88
2019-06-01T09:04:40.523Z,61.88
2019-06-01T09:05:39.509Z,61.88
2019-06-01T09:06:39.511Z,61.88
2019-06-01T09:07:39.486Z,61.88
2019-06-01T09:08:39.505Z,61.88
2019-06-01T09:09:39.462Z,61.88
2019-06-01T09:10:39.451Z,67.50
2019-06-01T09:11:39.441Z,67.50
2019-06-01T09:12:39.428Z,67.50
2019-06-01T09:13:39.454Z,67.50
2019-06-01T09:14:39.405Z,67.50
2019-06-01T09:15:39.420Z,73.12
2019-06-01T09:16:39.390Z,73.12
2019-06-01T09:17:39.371Z,73.12
2019-06-01T09:18:39.451Z,73.12
2019-06-01T09:19:39.350Z,78.75
2019-06-01T09:20:39.341Z,78.75
2019-06-01T09:21:39.329Z,78.75
2019-06-01T09:22:39.317Z,78.75
2019-06-01T09:23:39.318Z,84.38
2019-06-01T09:24:39.323Z,84.38
2019-06-01T09:25:39.286Z,84.38
2019-06-01T09:26:39.271Z,84.38
2019-06-01T09:27:39.267Z,84.38
2019-06-01T09:28:39.256Z,90.00
2019-06-01T09:29:39.269Z,90.00
2019-06-01T09:30:39.225Z,90.00
2019-06-01T09:31:39.220Z,95.62
2019-06-01T09:32:39.206Z,95.62
2019-06-01T09:33:39.196Z,95.62
2019-06-01T09:34:39.217Z,95.62
2019-06-01T09:35:53.622Z,95.62
2019-06-01T09:36:40.156Z,95.62
2019-06-01T09:37:39.149Z,95.62
2019-06-01T09:38:39.139Z,95.62
2019-06-01T09:39:39.157Z,101.25
2019-06-01T09:40:39.113Z,101.25
2019-06-01T09:41:39.110Z,101.25
2019-06-01T09:42:39.109Z,106.88
2019-06-01T09:43:39.080Z,106.88
2019-06-01T09:44:39.101Z,106.88
2019-06-01T09:45:39.061Z,106.88
2019-06-01T09:46:39.047Z,112.50
2019-06-01T09:47:39.046Z,112.50
2019-06-01T09:48:39.030Z,112.50
2019-06-01T09:49:39.046Z,112.50
2019-06-01T09:50:39.003Z,118.12
2019-06-01T09:51:38.993Z,118.12
2019-06-01T09:52:38.983Z,123.75
2019-06-01T09:53:38.974Z,123.75
2019-06-01T09:54:39.006Z,123.75
2019-06-01T09:55:38.969Z,123.75
2019-06-01T09:56:39.937Z,123.75
2019-06-01T09:57:38.924Z,123.75
2019-06-01T09:58:38.963Z,123.75
2019-06-01T09:59:38.934Z,129.38
2019-06-01T10:00:42.105Z,129.38
2019-06-01T10:01:39.026Z,135.00
2019-06-01T10:02:38.877Z,140.62
2019-06-01T10:03:38.860Z,140.62
2019-06-01T10:04:38.916Z,140.62
2019-06-01T10:05:38.840Z,140.62
2019-06-01T10:06:38.840Z,146.25
2019-06-01T10:07:39.345Z,146.25
2019-06-01T10:08:38.806Z,151.88
2019-06-01T10:09:38.826Z,157.50
2019-06-01T10:10:38.789Z,163.12
2019-06-01T10:11:38.770Z,163.12
2019-06-01T10:12:38.759Z,163.12
2019-06-01T10:13:38.746Z,163.12
2019-06-01T10:14:39.343Z,163.12
2019-06-01T10:15:38.754Z,174.38
2019-06-01T10:16:39.037Z,168.75
2019-06-01T10:17:39.146Z,163.12
2019-06-01T10:18:39.105Z,168.75
2019-06-01T10:19:38.950Z,180.00
2019-06-01T10:20:39.201Z,185.62
2019-06-01T10:21:38.654Z,185.62
2019-06-01T10:22:39.517Z,185.62
2019-06-01T10:23:38.639Z,191.25
2019-06-01T10:24:39.309Z,191.25
2019-06-01T10:25:38.700Z,196.88
2019-06-01T10:26:39.580Z,196.88
2019-06-01T10:27:38.786Z,202.50
2019-06-01T10:28:39.824Z,202.50
2019-06-01T10:29:39.961Z,208.12
2019-06-01T10:30:39.874Z,208.12
2019-06-01T10:31:41.148Z,213.75
2019-06-01T10:32:39.800Z,213.75
2019-06-01T10:33:39.030Z,213.75
2019-06-01T10:34:39.777Z,219.38
2019-06-01T10:35:38.981Z,225.00
2019-06-01T10:36:38.488Z,219.38
2019-06-01T10:37:39.621Z,219.38
2019-06-01T10:38:39.337Z,219.38
2019-06-01T10:39:39.381Z,225.00
2019-06-01T10:40:39.861Z,230.62
2019-06-01T10:41:39.638Z,230.62
2019-06-01T10:42:39.732Z,230.62
2019-06-01T10:43:39.507Z,236.25
2019-06-01T10:44:42.243Z,236.25
2019-06-01T10:45:39.870Z,236.25
2019-06-01T10:46:38.378Z,236.25
2019-06-01T10:47:38.471Z,241.88
2019-06-01T10:48:38.355Z,247.50
2019-06-01T10:49:38.344Z,253.12
2019-06-01T10:50:38.557Z,253.12
2019-06-01T10:51:38.385Z,264.38
2019-06-01T10:52:38.505Z,270.00
2019-06-01T10:53:38.309Z,270.00
2019-06-01T10:54:38.402Z,264.38
2019-06-01T10:55:38.503Z,264.38
2019-06-01T10:56:38.560Z,264.38
2019-06-01T10:57:38.549Z,264.38
2019-06-01T10:58:54.432Z,264.38
2019-06-01T10:59:40.457Z,264.38
2019-06-01T11:00:45.837Z,270.00
2019-06-01T11:01:40.669Z,275.62
2019-06-01T11:02:38.859Z,270.00
2019-06-01T11:03:38.759Z,275.62
2019-06-01T11:04:38.957Z,275.62
2019-06-01T11:05:38.822Z,281.25
2019-06-01T11:06:45.191Z,286.88
2019-06-01T11:07:39.241Z,292.50
2019-06-01T11:08:39.036Z,292.50
2019-06-01T11:09:38.973Z,298.12
2019-06-01T11:10:38.918Z,298.12
2019-06-01T11:11:39.094Z,298.12
2019-06-01T11:12:39.119Z,298.12
2019-06-01T11:13:39.043Z,298.12
2019-06-01T11:14:39.095Z,303.75
2019-06-01T11:15:39.070Z,309.38
2019-06-01T11:16:39.401Z,309.38
2019-06-01T11:17:39.084Z,309.38
2019-06-01T11:18:39.420Z,309.38
2019-06-01T11:19:39.366Z,303.75
2019-06-01T11:20:38.286Z,309.38
2019-06-01T11:21:38.014Z,320.62
2019-06-01T11:22:37.971Z,320.62
2019-06-01T11:23:37.962Z,315.00
2019-06-01T11:24:37.949Z,309.38
2019-06-01T11:25:37.941Z,303.75
2019-06-01T11:26:37.963Z,303.75
2019-06-01T11:27:37.918Z,303.75
2019-06-01T11:28:38.278Z,303.75
2019-06-01T11:29:47.034Z,303.75
2019-06-01T11:30:39.943Z,303.75
2019-06-01T11:31:38.273Z,292.50
2019-06-01T11:32:39.460Z,303.75
2019-06-01T11:33:38.177Z,303.75
2019-06-01T11:34:38.479Z,292.50
2019-06-01T11:35:39.107Z,286.88
2019-06-01T11:36:58.546Z,270.00
2019-06-01T11:37:38.808Z,270.00
2019-06-01T11:38:38.455Z,281.25
2019-06-01T11:39:38.457Z,292.50
2019-06-01T11:40:38.623Z,309.38
2019-06-01T11:41:38.476Z,309.38
2019-06-01T11:42:39.038Z,326.25
2019-06-01T11:43:38.645Z,331.88
2019-06-01T11:44:38.654Z,326.25
2019-06-01T11:45:38.791Z,331.88
2019-06-01T11:46:38.841Z,337.50
2019-06-01T11:47:38.879Z,337.50
2019-06-01T11:48:39.080Z,337.50
2019-06-01T11:49:38.667Z,343.12
2019-06-01T11:50:38.740Z,348.75
2019-06-01T11:51:39.316Z,343.12
2019-06-01T11:52:39.088Z,348.75
2019-06-01T11:53:37.635Z,348.75
2019-06-01T11:54:37.629Z,348.75
2019-06-01T11:55:37.612Z,326.25
2019-06-01T11:56:37.633Z,320.62
2019-06-01T11:57:37.659Z,264.38
2019-06-01T11:58:37.582Z,286.88
2019-06-01T11:59:37.569Z,320.62
2019-06-01T12:00:37.637Z,326.25
2019-06-01T12:01:37.793Z,337.50
2019-06-01T12:02:37.572Z,348.75
2019-06-01T12:03:37.733Z,343.12
2019-06-01T12:04:37.874Z,337.50
2019-06-01T12:05:37.915Z,348.75
2019-06-01T12:06:37.801Z,354.38
2019-06-01T12:07:37.723Z,354.38
2019-06-01T12:08:38.047Z,360.00
2019-06-01T12:09:37.731Z,354.38
2019-06-01T12:10:38.844Z,360.00
2019-06-01T12:11:37.931Z,348.75
2019-06-01T12:12:38.284Z,343.12
2019-06-01T12:13:38.115Z,354.38
2019-06-01T12:14:38.422Z,348.75
2019-06-01T12:15:38.413Z,354.38
2019-06-01T12:16:38.412Z,348.75
2019-06-01T12:17:38.781Z,343.12
2019-06-01T12:18:38.478Z,348.75
2019-06-01T12:19:38.510Z,343.12
2019-06-01T12:20:38.570Z,343.12
2019-06-01T12:21:38.833Z,343.12
2019-06-01T12:22:37.357Z,337.50
2019-06-01T12:23:37.451Z,348.75
2019-06-01T12:24:37.307Z,337.50
2019-06-01T12:25:38.254Z,331.88
2019-06-01T12:26:37.336Z,331.88
2019-06-01T12:27:37.458Z,331.88
2019-06-01T12:28:37.623Z,331.88
2019-06-01T12:29:37.468Z,331.88
2019-06-01T12:30:37.532Z,326.25
2019-06-01T12:31:37.668Z,320.62
2019-06-01T12:32:37.907Z,315.00
2019-06-01T12:33:37.948Z,315.00
2019-06-01T12:34:38.078Z,315.00
2019-06-01T12:35:37.897Z,315.00
2019-06-01T12:36:39.310Z,309.38
2019-06-01T12:37:56.006Z,315.00
2019-06-01T12:38:38.164Z,309.38
2019-06-01T12:39:38.290Z,303.75
2019-06-01T12:40:37.140Z,309.38
2019-06-01T12:41:37.129Z,303.75
2019-06-01T12:42:37.150Z,303.75
2019-06-01T12:43:37.107Z,303.75
2019-06-01T12:44:37.097Z,298.12
2019-06-01T12:45:37.088Z,303.75
2019-06-01T12:46:37.076Z,303.75
2019-06-01T12:47:37.097Z,303.75
2019-06-01T12:48:37.059Z,303.75
2019-06-01T12:49:37.047Z,303.75
2019-06-01T12:50:37.038Z,303.75
2019-06-01T12:51:37.030Z,303.75
2019-06-01T12:52:37.044Z,303.75
2019-06-01T12:53:37.004Z,303.75
2019-06-01T12:54:37.003Z,298.12